createdAt,value
2022-09-26T00:06:54.818Z,99.85
2022-09-26T00:21:45.869Z,99.75
2022-09-26T00:36:38.969Z,99.91
2022-09-26T00:51:28.869Z,99.87
2022-09-26T01:06:20.380Z,99.02
2022-09-26T01:21:26.069Z,99.30
2022-09-26T01:36:44.748Z,98.97
2022-09-26T01:51:42.099Z,98.96
2022-09-26T02:06:51.537Z,98.62
2022-09-26T02:21:48.153Z,98.51
2022-09-26T02:36:39.028Z,98.14
2022-09-26T02:51:38.795Z,97.72
2022-09-26T03:06:33.389Z,98.09
2022-09-26T03:21:25.851Z,99.51
2022-09-26T03:36:18.031Z,100.00
2022-09-26T03:51:09.256Z,100.00
2022-09-26T04:06:01.953Z,99.57
2022-09-26T04:36:01.547Z,98.13
2022-09-26T04:50:52.665Z,97.82
2022-09-26T05:05:49.951Z,97.69
2022-09-26T05:20:50.573Z,96.87
2022-09-26T05:35:48.738Z,95.35
2022-09-26T05:50:43.742Z,95.86
2022-09-26T06:05:33.287Z,96.23
2022-09-26T06:20:23.698Z,96.36
2022-09-26T06:35:14.603Z,96.08
2022-09-26T06:50:06.617Z,94.74
2022-09-26T07:04:58.984Z,93.24
2022-09-26T07:19:50.473Z,91.70
2022-09-26T07:34:42.663Z,89.66
2022-09-26T07:49:52.623Z,88.46
2022-09-26T08:04:51.090Z,87.39
2022-09-26T08:19:43.477Z,86.43
2022-09-26T08:34:35.723Z,84.88
2022-09-26T08:49:36.867Z,81.52
2022-09-26T09:35:13.312Z,74.89
2022-09-26T09:50:15.968Z,73.73
2022-09-26T10:05:17.261Z,69.71
2022-09-26T10:20:41.271Z,70.37
2022-09-26T10:35:52.070Z,79.13
2022-09-26T10:50:40.546Z,81.69
2022-09-26T11:05:54.589Z,79.22
2022-09-26T11:20:58.032Z,81.93
2022-09-26T11:36:09.949Z,81.74
2022-09-26T11:51:36.169Z,85.59
2022-09-26T12:06:37.159Z,92.20
2022-09-26T12:21:31.966Z,97.53
2022-09-26T12:36:49.430Z,96.09
2022-09-26T12:51:56.725Z,98.35
2022-09-26T13:07:08.024Z,96.33
2022-09-26T13:21:44.224Z,100.00
2022-09-26T13:36:39.122Z,93.97
2022-09-26T13:51:31.473Z,87.70
2022-09-26T14:06:26.400Z,82.44
2022-09-26T14:21:33.512Z,74.84
2022-09-26T14:36:26.969Z,77.92
2022-09-26T14:51:23.795Z,78.69
2022-09-26T15:06:17.250Z,79.90
2022-09-26T15:21:23.169Z,76.67
2022-09-26T15:36:18.614Z,74.01
2022-09-26T15:51:21.607Z,72.74
2022-09-26T16:06:19.607Z,73.84
2022-09-26T16:21:25.057Z,72.83
2022-09-26T16:36:21.389Z,73.71
2022-09-26T16:51:16.655Z,73.57
2022-09-26T17:06:09.407Z,73.67
2022-09-26T17:20:59.723Z,72.61
2022-09-26T17:35:50.065Z,72.65
2022-09-26T17:50:40.965Z,71.63
2022-09-26T18:05:32.193Z,71.99
2022-09-26T18:20:23.208Z,72.50
2022-09-26T18:35:15.114Z,73.17
2022-09-26T18:50:06.970Z,79.56
2022-09-26T19:04:56.587Z,83.64
2022-09-26T19:19:46.564Z,85.63
2022-09-26T19:34:37.691Z,87.97
2022-09-26T19:49:28.385Z,87.82
2022-09-26T20:04:18.616Z,86.89
2022-09-26T20:19:09.491Z,85.46
2022-09-26T20:33:59.910Z,87.71
2022-09-26T20:48:50.547Z,91.46
2022-09-26T21:03:44.281Z,93.42
2022-09-26T21:18:32.341Z,94.69
2022-09-26T21:33:23.449Z,96.27
2022-09-26T21:48:14.291Z,96.56
2022-09-26T22:03:06.038Z,94.17
2022-09-26T22:17:56.321Z,94.07
2022-09-26T22:32:46.802Z,93.63
2022-09-26T22:47:37.857Z,93.60
2022-09-26T23:02:29.267Z,94.09
2022-09-26T23:17:20.022Z,95.00
2022-09-26T23:32:11.568Z,96.05
2022-09-26T23:47:02.822Z,97.71
